Time;durP1;ratioP1;P1;durP2;ratioP2;P2;SDS_P1;SDS_P2;PMS_P1;PMS_P2;Temp;Humidity;BMP_temperature;BMP_pressure;BME280_temperature;BME280_humidity;BME280_pressure;Samples;Min_cycle;Max_cycle;Signal;HPM_P1;HPM_P2
2021/03/29 00:01:40;;;;;;;59.00;36.60;;;;;;;;;;4315660;33;20278;-71
2021/03/29 00:04:06;;;;;;;61.63;37.57;;;;;;;;;;4316113;33;20253;-73
2021/03/29 00:06:35;;;;;;;67.27;40.10;;;;;;;;;;4328880;33;20588;-72
2021/03/29 00:09:03;;;;;;;80.43;42.63;;;;;;;;;;4315984;33;20223;-73
2021/03/29 00:11:30;;;;;;;55.33;34.63;;;;;;;;;;4315331;33;20260;-73
2021/03/29 00:13:56;;;;;;;59.63;34.77;;;;;;;;;;4315450;33;20589;-72
2021/03/29 00:16:23;;;;;;;62.67;33.93;;;;;;;;;;4328835;33;20294;-70
2021/03/29 00:18:50;;;;;;;44.03;31.20;;;;;;;;;;4316787;33;20224;-72
2021/03/29 00:21:16;;;;;;;54.63;35.47;;;;;;;;;;4314043;33;20199;-72
2021/03/29 00:23:42;;;;;;;55.67;33.53;;;;;;;;;;4314169;33;20349;-72
2021/03/29 00:26:09;;;;;;;53.67;32.63;;;;;;;;;;4300848;33;20323;-71
2021/03/29 00:28:35;;;;;;;54.73;34.57;;;;;;;;;;4314206;33;20282;-72
2021/03/29 00:31:01;;;;;;;61.30;38.57;;;;;;;;;;4314018;33;20211;-73
2021/03/29 00:33:29;;;;;;;69.33;39.93;;;;;;;;;;4312971;33;20243;-73
2021/03/29 00:35:56;;;;;;;70.70;40.57;;;;;;;;;;4314303;33;20192;-72
2021/03/29 00:38:23;;;;;;;60.37;38.63;;;;;;;;;;4300562;33;20250;-71
2021/03/29 00:40:54;;;;;;;55.93;37.03;;;;;;;;;;4313498;33;20232;-70
2021/03/29 00:43:24;;;;;;;72.93;43.53;;;;;;;;;;4314160;33;20293;-69
2021/03/29 00:45:52;;;;;;;72.80;40.73;;;;;;;;;;4300379;33;20293;-69
2021/03/29 00:48:20;;;;;;;72.13;41.90;;;;;;;;;;4313834;33;20328;-71
2021/03/29 00:51:02;;;;;;;61.93;35.83;;;;;;;;;;4313947;33;20319;-73
2021/03/29 00:53:29;;;;;;;59.87;33.37;;;;;;;;;;4300404;33;20231;-71
2021/03/29 00:55:55;;;;;;;42.97;28.47;;;;;;;;;;4313816;33;20282;-71
2021/03/29 00:58:24;;;;;;;46.67;28.20;;;;;;;;;;4312357;33;20243;-72
2021/03/29 01:01:00;;;;;;;49.83;29.40;;;;;;;;;;4313344;33;20195;-72
2021/03/29 01:03:30;;;;;;;54.10;30.43;;;;;;;;;;4313847;33;20211;-72
2021/03/29 01:06:03;;;;;;;46.07;26.70;;;;;;;;;;4303574;33;20700;-73
2021/03/29 01:08:31;;;;;;;44.97;27.03;;;;;;;;;;4310013;33;20670;-71
2021/03/29 01:10:59;;;;;;;41.43;28.10;;;;;;;;;;4316400;33;20225;-72
2021/03/29 01:13:25;;;;;;;42.17;28.83;;;;;;;;;;4328290;33;20314;-71
2021/03/29 01:15:55;;;;;;;45.67;27.23;;;;;;;;;;4328157;33;20310;-71
2021/03/29 01:18:23;;;;;;;37.50;26.47;;;;;;;;;;4328263;33;20258;-72
2021/03/29 01:20:55;;;;;;;39.80;25.73;;;;;;;;;;4302264;33;20664;-72
2021/03/29 01:23:22;;;;;;;32.83;21.37;;;;;;;;;;4328099;33;20701;-72
2021/03/29 01:26:07;;;;;;;34.77;22.33;;;;;;;;;;4328166;33;20733;-70
2021/03/29 01:28:35;;;;;;;38.07;19.80;;;;;;;;;;4328173;33;20733;-72
2021/03/29 01:31:01;;;;;;;34.77;20.60;;;;;;;;;;4326184;33;20285;-70
2021/03/29 01:33:27;;;;;;;31.87;20.23;;;;;;;;;;4328078;33;20369;-69
2021/03/29 01:36:00;;;;;;;25.10;17.97;;;;;;;;;;4314285;33;20249;-72
2021/03/29 01:38:29;;;;;;;28.93;20.23;;;;;;;;;;4327952;33;20223;-73
2021/03/29 01:40:58;;;;;;;39.17;24.00;;;;;;;;;;4327309;33;20270;-73
2021/03/29 01:43:24;;;;;;;31.70;20.90;;;;;;;;;;4326623;33;20242;-73
2021/03/29 01:45:51;;;;;;;35.57;22.33;;;;;;;;;;4326555;33;20269;-72
2021/03/29 01:48:17;;;;;;;39.70;24.17;;;;;;;;;;4327740;33;20278;-72
2021/03/29 01:50:44;;;;;;;30.87;20.53;;;;;;;;;;4327454;33;20667;-74
2021/03/29 01:53:11;;;;;;;31.10;23.07;;;;;;;;;;4327856;33;20297;-73
2021/03/29 01:55:38;;;;;;;46.57;26.80;;;;;;;;;;4327587;33;20413;-72
2021/03/29 01:58:06;;;;;;;40.20;28.00;;;;;;;;;;4327582;33;20208;-71
2021/03/29 02:00:43;;;;;;;48.00;29.50;;;;;;;;;;4313681;33;20302;-73
2021/03/29 02:03:11;;;;;;;61.33;35.17;;;;;;;;;;4327789;33;20206;-55
2021/03/29 02:05:38;;;;;;;76.27;40.97;;;;;;;;;;4327791;33;20231;-56
2021/03/29 02:08:05;;;;;;;63.13;37.20;;;;;;;;;;4327594;33;20218;-56
2021/03/29 02:10:34;;;;;;;70.57;40.47;;;;;;;;;;4327541;33;20218;-56
2021/03/29 02:13:06;;;;;;;85.37;46.10;;;;;;;;;;4327773;33;20617;-56
2021/03/29 02:15:32;;;;;;;70.27;43.37;;;;;;;;;;4327541;33;20553;-56
2021/03/29 02:17:59;;;;;;;61.03;37.40;;;;;;;;;;4327381;33;20308;-57
2021/03/29 02:20:28;;;;;;;48.33;31.17;;;;;;;;;;4327248;33;20277;-55
2021/03/29 02:22:54;;;;;;;49.00;30.10;;;;;;;;;;4327682;33;20249;-57
2021/03/29 02:25:24;;;;;;;53.90;32.23;;;;;;;;;;4313889;33;20243;-55
2021/03/29 02:27:50;;;;;;;53.77;33.40;;;;;;;;;;4314072;33;20223;-56
2021/03/29 02:30:21;;;;;;;57.90;33.00;;;;;;;;;;4314035;33;20231;-56
2021/03/29 02:32:48;;;;;;;46.63;31.10;;;;;;;;;;4328090;33;20625;-56
2021/03/29 02:35:15;;;;;;;59.67;34.07;;;;;;;;;;4326912;33;20231;-55
2021/03/29 02:37:46;;;;;;;53.40;31.40;;;;;;;;;;4330525;33;20255;-56
2021/03/29 02:40:13;;;;;;;46.37;31.17;;;;;;;;;;4330168;33;20316;-56
2021/03/29 02:42:41;;;;;;;49.77;29.20;;;;;;;;;;4316965;33;20316;-56
2021/03/29 02:45:11;;;;;;;48.83;30.33;;;;;;;;;;4317298;33;20227;-56
2021/03/29 02:47:41;;;;;;;45.37;29.03;;;;;;;;;;4330647;33;20191;-56
2021/03/29 02:50:09;;;;;;;41.43;27.90;;;;;;;;;;4316790;33;20231;-56
2021/03/29 02:52:36;;;;;;;48.23;30.67;;;;;;;;;;4330034;33;20246;-56
2021/03/29 02:55:07;;;;;;;50.57;31.23;;;;;;;;;;4330322;33;20305;-55
2021/03/29 02:57:36;;;;;;;53.20;31.77;;;;;;;;;;4329942;33;20230;-56
2021/03/29 03:00:11;;;;;;;50.67;32.40;;;;;;;;;;4329631;33;20375;-56
2021/03/29 03:02:36;;;;;;;60.07;35.30;;;;;;;;;;4330163;33;20221;-55
2021/03/29 03:05:09;;;;;;;60.77;36.43;;;;;;;;;;4329779;33;20230;-56
2021/03/29 03:07:36;;;;;;;57.20;36.70;;;;;;;;;;4316811;33;20242;-55
2021/03/29 03:10:12;;;;;;;61.67;38.23;;;;;;;;;;4328537;33;20646;-56
2021/03/29 03:12:42;;;;;;;66.23;38.63;;;;;;;;;;4316375;33;20258;-55
2021/03/29 03:15:13;;;;;;;59.00;36.90;;;;;;;;;;4329846;33;20365;-56
2021/03/29 03:17:38;;;;;;;66.33;38.50;;;;;;;;;;4315995;33;20310;-55
2021/03/29 03:20:09;;;;;;;71.63;41.90;;;;;;;;;;4316227;33;20369;-56
2021/03/29 03:22:35;;;;;;;63.97;40.73;;;;;;;;;;4329709;33;20223;-57
2021/03/29 03:25:00;;;;;;;59.60;39.73;;;;;;;;;;4329816;33;20779;-55
2021/03/29 03:27:26;;;;;;;52.27;34.63;;;;;;;;;;4329669;33;20282;-57
2021/03/29 03:29:52;;;;;;;51.77;37.93;;;;;;;;;;4329449;33;20660;-56
2021/03/29 03:32:17;;;;;;;60.30;38.07;;;;;;;;;;4316155;33;20364;-57
2021/03/29 03:34:44;;;;;;;51.80;33.57;;;;;;;;;;4329653;33;20598;-56
2021/03/29 03:37:17;;;;;;;47.33;31.87;;;;;;;;;;4329558;33;20199;-57
2021/03/29 03:39:48;;;;;;;42.33;30.87;;;;;;;;;;4329225;33;20692;-56
2021/03/29 03:42:14;;;;;;;52.50;35.90;;;;;;;;;;4329455;33;20302;-56
2021/03/29 03:44:40;;;;;;;36.67;26.07;;;;;;;;;;4329107;33;20314;-56
2021/03/29 03:47:07;;;;;;;33.37;23.77;;;;;;;;;;4329039;33;20204;-56
2021/03/29 03:49:34;;;;;;;33.70;22.93;;;;;;;;;;4329264;33;20645;-56
2021/03/29 03:52:00;;;;;;;30.43;22.37;;;;;;;;;;4329170;33;20262;-55
2021/03/29 03:54:27;;;;;;;37.47;24.87;;;;;;;;;;4315682;33;20236;-56
2021/03/29 03:56:53;;;;;;;43.10;31.77;;;;;;;;;;4327807;33;20329;-56
2021/03/29 03:59:19;;;;;;;45.27;31.37;;;;;;;;;;4327606;33;20371;-57
2021/03/29 04:02:05;;;;;;;32.77;25.77;;;;;;;;;;4315399;33;20602;-56
2021/03/29 04:04:31;;;;;;;37.73;23.73;;;;;;;;;;4328853;33;20219;-55
2021/03/29 04:06:57;;;;;;;28.23;20.43;;;;;;;;;;4328842;33;20249;-56
2021/03/29 04:09:31;;;;;;;39.63;24.27;;;;;;;;;;4329067;33;20211;-55
2021/03/29 04:11:57;;;;;;;41.90;27.60;;;;;;;;;;4328644;33;20518;-56
2021/03/29 04:14:22;;;;;;;45.87;30.90;;;;;;;;;;4328745;33;20245;-56
2021/03/29 04:16:47;;;;;;;44.67;30.17;;;;;;;;;;4328646;33;20282;-56
2021/03/29 04:19:13;;;;;;;52.97;35.20;;;;;;;;;;4327437;33;20496;-55
2021/03/29 04:21:38;;;;;;;56.47;36.47;;;;;;;;;;4314910;33;20250;-56
2021/03/29 04:24:04;;;;;;;69.73;40.67;;;;;;;;;;4328881;33;20766;-55
2021/03/29 04:26:30;;;;;;;63.27;39.97;;;;;;;;;;4328563;33;20207;-56
2021/03/29 04:28:55;;;;;;;69.63;43.83;;;;;;;;;;4315114;33;20277;-56
2021/03/29 04:31:21;;;;;;;71.50;42.53;;;;;;;;;;4328229;33;20349;-55
2021/03/29 04:33:46;;;;;;;73.73;43.77;;;;;;;;;;4315278;33;20242;-56
2021/03/29 04:36:12;;;;;;;83.53;47.57;;;;;;;;;;4328555;33;20219;-57
2021/03/29 04:38:37;;;;;;;96.93;50.57;;;;;;;;;;4315108;33;20231;-56
2021/03/29 04:41:05;;;;;;;90.77;50.17;;;;;;;;;;4328073;33;20206;-56
2021/03/29 04:43:31;;;;;;;101.43;51.60;;;;;;;;;;4315031;33;20246;-55
2021/03/29 04:45:56;;;;;;;84.63;50.67;;;;;;;;;;4328424;33;20215;-55
2021/03/29 04:48:22;;;;;;;86.80;53.13;;;;;;;;;;4328216;33;20239;-55
2021/03/29 04:50:47;;;;;;;75.80;50.27;;;;;;;;;;4327719;33;20289;-56
2021/03/29 04:53:13;;;;;;;86.93;45.57;;;;;;;;;;4328310;33;20662;-56
2021/03/29 04:55:38;;;;;;;87.83;46.20;;;;;;;;;;4328268;33;20219;-56
2021/03/29 04:58:04;;;;;;;91.70;50.23;;;;;;;;;;4327502;33;20332;-56
2021/03/29 05:00:29;;;;;;;96.90;51.77;;;;;;;;;;4327898;33;20215;-56
2021/03/29 05:02:55;;;;;;;89.30;52.93;;;;;;;;;;4328453;33;20269;-56
2021/03/29 05:05:20;;;;;;;114.17;67.13;;;;;;;;;;4327802;33;20568;-55
2021/03/29 05:07:46;;;;;;;123.87;75.10;;;;;;;;;;4328423;33;20270;-55
2021/03/29 05:10:13;;;;;;;144.53;78.53;;;;;;;;;;4327975;33;20656;-56
2021/03/29 05:12:38;;;;;;;137.50;81.63;;;;;;;;;;4328414;33;20241;-55
2021/03/29 05:15:06;;;;;;;140.60;85.13;;;;;;;;;;4328106;33;20247;-55
2021/03/29 05:17:32;;;;;;;165.07;90.63;;;;;;;;;;4327957;33;20320;-55
2021/03/29 05:19:57;;;;;;;159.00;91.93;;;;;;;;;;4327331;33;20223;-56
2021/03/29 05:22:22;;;;;;;120.40;69.53;;;;;;;;;;4327525;33;20282;-56
2021/03/29 05:24:48;;;;;;;117.10;71.20;;;;;;;;;;4328027;33;20527;-55
2021/03/29 05:27:14;;;;;;;123.47;68.83;;;;;;;;;;4314591;33;20306;-55
2021/03/29 05:29:43;;;;;;;111.20;71.07;;;;;;;;;;4327885;33;20365;-69
2021/03/29 05:32:17;;;;;;;135.80;78.77;;;;;;;;;;4327743;33;20274;-69
2021/03/29 05:34:44;;;;;;;120.23;72.13;;;;;;;;;;4314679;33;20253;-71
2021/03/29 05:37:10;;;;;;;118.87;73.17;;;;;;;;;;4314297;33;20247;-70
2021/03/29 05:39:37;;;;;;;134.67;81.80;;;;;;;;;;4327859;33;20277;-70
2021/03/29 05:42:04;;;;;;;138.33;79.00;;;;;;;;;;4327429;33;20577;-71
2021/03/29 05:44:29;;;;;;;96.70;64.13;;;;;;;;;;4327941;33;20235;-71
2021/03/29 05:46:56;;;;;;;85.53;56.67;;;;;;;;;;4327379;33;20253;-71
2021/03/29 05:49:21;;;;;;;86.20;52.80;;;;;;;;;;4327126;33;20321;-71
2021/03/29 05:51:47;;;;;;;77.70;48.27;;;;;;;;;;4326364;33;20225;-71
2021/03/29 05:54:13;;;;;;;73.33;47.30;;;;;;;;;;4313565;33;20385;-71
2021/03/29 05:56:40;;;;;;;83.03;50.23;;;;;;;;;;4325554;33;20746;-71
2021/03/29 06:01:48;;;;;;;63.07;45.43;;;;;;;;;;4327024;33;20273;-72
2021/03/29 06:04:16;;;;;;;57.23;37.93;;;;;;;;;;4315003;33;20223;-71
2021/03/29 06:06:42;;;;;;;56.90;40.07;;;;;;;;;;4313950;33;20290;-70
2021/03/29 06:09:09;;;;;;;52.63;36.60;;;;;;;;;;4328034;33;20237;-70
2021/03/29 06:11:38;;;;;;;90.13;58.20;;;;;;;;;;4316719;33;20619;-70
2021/03/29 06:14:17;;;;;;;61.50;41.40;;;;;;;;;;4330706;33;20284;-71
2021/03/29 06:17:04;;;;;;;54.43;37.00;;;;;;;;;;4330261;33;20203;-71
2021/03/29 06:19:45;;;;;;;70.77;44.57;;;;;;;;;;4315752;33;20232;-71
2021/03/29 06:22:22;;;;;;;58.30;39.80;;;;;;;;;;4314447;33;20896;-70
2021/03/29 06:24:59;;;;;;;83.07;48.37;;;;;;;;;;4314717;33;20575;-71
2021/03/29 06:27:27;;;;;;;66.83;42.57;;;;;;;;;;4315880;33;20219;-70
2021/03/29 06:30:11;;;;;;;61.90;42.87;;;;;;;;;;4315442;33;20224;-70
2021/03/29 06:32:38;;;;;;;65.17;41.00;;;;;;;;;;4314651;33;20293;-69
2021/03/29 06:35:29;;;;;;;72.77;44.77;;;;;;;;;;4315877;33;20248;-71
2021/03/29 06:38:12;;;;;;;66.63;46.03;;;;;;;;;;4290788;33;20285;-70
2021/03/29 06:40:40;;;;;;;71.93;44.07;;;;;;;;;;4315155;33;20237;-71
2021/03/29 06:43:32;;;;;;;82.70;47.47;;;;;;;;;;4315333;33;20621;-71
2021/03/29 06:46:03;;;;;;;75.17;48.30;;;;;;;;;;4302227;33;20232;-71
2021/03/29 06:48:31;;;;;;;69.60;48.00;;;;;;;;;;4315464;33;20216;-71
2021/03/29 06:51:20;;;;;;;81.93;51.37;;;;;;;;;;4315360;33;20522;-70
2021/03/29 06:53:51;;;;;;;70.90;47.43;;;;;;;;;;4313965;33;20215;-72
2021/03/29 06:56:29;;;;;;;77.17;52.33;;;;;;;;;;4314084;33;20290;-71
2021/03/29 06:59:22;;;;;;;78.73;52.57;;;;;;;;;;4313987;33;20378;-72
2021/03/29 07:01:53;;;;;;;63.77;46.27;;;;;;;;;;4301732;33;20332;-71
2021/03/29 07:04:24;;;;;;;82.40;53.17;;;;;;;;;;4314825;33;20211;-70
2021/03/29 07:06:50;;;;;;;72.73;48.53;;;;;;;;;;4315065;33;20219;-70
2021/03/29 07:09:16;;;;;;;64.63;43.87;;;;;;;;;;4315111;33;20528;-71
2021/03/29 07:11:44;;;;;;;60.00;39.07;;;;;;;;;;4314615;33;20223;-73
2021/03/29 07:14:10;;;;;;;53.70;34.27;;;;;;;;;;4313863;33;20270;-72
2021/03/29 07:16:37;;;;;;;53.97;34.00;;;;;;;;;;4301658;33;20294;-71
2021/03/29 07:19:07;;;;;;;72.00;43.93;;;;;;;;;;4314862;33;20239;-71
2021/03/29 07:21:35;;;;;;;69.13;43.67;;;;;;;;;;4313796;33;20203;-71
2021/03/29 07:24:08;;;;;;;74.60;44.33;;;;;;;;;;4314844;33;20251;-71
2021/03/29 07:26:41;;;;;;;67.17;45.33;;;;;;;;;;4313926;33;20535;-70
2021/03/29 07:29:28;;;;;;;76.80;46.90;;;;;;;;;;4315210;33;20372;-70
2021/03/29 07:31:56;;;;;;;79.23;48.37;;;;;;;;;;4314971;33;20545;-70
2021/03/29 07:34:48;;;;;;;81.97;49.87;;;;;;;;;;4314952;33;20312;-70
2021/03/29 07:37:36;;;;;;;72.47;49.40;;;;;;;;;;4315108;33;20254;-71
2021/03/29 07:40:35;;;;;;;71.53;50.23;;;;;;;;;;4314725;33;20261;-70
2021/03/29 07:43:16;;;;;;;87.60;52.93;;;;;;;;;;4311390;33;20292;-69
2021/03/29 07:45:45;;;;;;;83.97;54.47;;;;;;;;;;4312968;33;20230;-71
2021/03/29 07:48:15;;;;;;;83.83;53.10;;;;;;;;;;4313157;33;20242;-70
2021/03/29 07:50:40;;;;;;;99.17;59.57;;;;;;;;;;4314416;33;20241;-71
2021/03/29 07:53:20;;;;;;;86.30;55.23;;;;;;;;;;4313372;33;20404;-70
2021/03/29 07:55:50;;;;;;;74.67;52.73;;;;;;;;;;4314659;33;20258;-71
2021/03/29 07:58:18;;;;;;;75.90;50.97;;;;;;;;;;4325045;33;20281;-71
2021/03/29 08:00:49;;;;;;;78.40;45.17;;;;;;;;;;4329221;33;20242;-71
2021/03/29 08:03:14;;;;;;;147.90;74.77;;;;;;;;;;4328872;33;20206;-71
2021/03/29 08:05:44;;;;;;;59.67;37.83;;;;;;;;;;4328868;33;20524;-71
2021/03/29 08:08:27;;;;;;;56.93;34.63;;;;;;;;;;4328857;33;20238;-71
2021/03/29 08:11:00;;;;;;;56.67;34.80;;;;;;;;;;4329011;33;20219;-69
2021/03/29 08:13:44;;;;;;;61.90;38.17;;;;;;;;;;4329027;33;20686;-70
2021/03/29 08:16:11;;;;;;;66.47;41.87;;;;;;;;;;4328672;33;20235;-69
2021/03/29 08:19:17;;;;;;;53.40;35.30;;;;;;;;;;4328632;33;20246;-70
2021/03/29 08:21:50;;;;;;;57.97;36.97;;;;;;;;;;4328622;33;20199;-70
2021/03/29 08:24:20;;;;;;;45.70;25.07;;;;;;;;;;4328676;33;20281;-70
2021/03/29 08:26:46;;;;;;;34.60;24.20;;;;;;;;;;4315368;33;20250;-70
2021/03/29 08:29:21;;;;;;;38.57;26.20;;;;;;;;;;4328402;33;20332;-69
2021/03/29 08:32:19;;;;;;;31.67;18.57;;;;;;;;;;4328611;33;20259;-70
2021/03/29 08:34:59;;;;;;;23.73;12.37;;;;;;;;;;4328341;33;20219;-68
2021/03/29 08:37:26;;;;;;;69.23;29.57;;;;;;;;;;4328562;33;20223;-69
2021/03/29 08:39:54;;;;;;;21.43;11.43;;;;;;;;;;4328542;33;20285;-70
2021/03/29 08:42:24;;;;;;;16.50;8.83;;;;;;;;;;4328537;33;20226;-69
2021/03/29 08:44:52;;;;;;;34.47;16.43;;;;;;;;;;4328486;33;20254;-70
2021/03/29 08:47:21;;;;;;;13.77;9.00;;;;;;;;;;4328401;33;20579;-69
2021/03/29 08:49:51;;;;;;;19.60;9.97;;;;;;;;;;4303082;33;20321;-69
2021/03/29 08:52:16;;;;;;;32.97;22.80;;;;;;;;;;4328182;33;20294;-68
2021/03/29 08:54:51;;;;;;;17.60;8.17;;;;;;;;;;4315091;33;20231;-68
2021/03/29 08:57:17;;;;;;;33.87;21.83;;;;;;;;;;4328161;33;20396;-68
2021/03/29 08:59:42;;;;;;;9.83;5.10;;;;;;;;;;4328426;33;20523;-68
2021/03/29 09:02:17;;;;;;;18.90;7.07;;;;;;;;;;4328199;33;20266;-67
2021/03/29 09:04:55;;;;;;;17.17;6.23;;;;;;;;;;4314926;33;20536;-68
2021/03/29 09:07:26;;;;;;;19.23;6.60;;;;;;;;;;4314894;33;20219;-68
2021/03/29 09:09:52;;;;;;;10.70;6.73;;;;;;;;;;4314986;33;20329;-69
2021/03/29 09:12:29;;;;;;;9.57;5.80;;;;;;;;;;4328158;33;20270;-67
2021/03/29 09:14:55;;;;;;;11.13;6.47;;;;;;;;;;4328170;33;20253;-69
2021/03/29 09:17:32;;;;;;;14.33;6.27;;;;;;;;;;4312247;33;20257;-66
2021/03/29 09:19:59;;;;;;;10.63;4.97;;;;;;;;;;4299885;33;20215;-68
2021/03/29 09:22:30;;;;;;;12.00;5.50;;;;;;;;;;4313127;33;20204;-68
2021/03/29 09:24:56;;;;;;;16.30;7.03;;;;;;;;;;4299854;33;20317;-68
2021/03/29 09:27:29;;;;;;;24.50;13.47;;;;;;;;;;4312907;33;20306;-67
2021/03/29 09:29:55;;;;;;;11.97;5.67;;;;;;;;;;4313184;33;20223;-69
2021/03/29 09:32:22;;;;;;;20.90;11.33;;;;;;;;;;4313119;33;20317;-68
2021/03/29 09:34:49;;;;;;;49.40;7.50;;;;;;;;;;4313314;33;20223;-68
2021/03/29 09:37:25;;;;;;;10.87;5.73;;;;;;;;;;4299921;33;20582;-67
2021/03/29 09:40:04;;;;;;;13.23;5.10;;;;;;;;;;4313135;33;20706;-68
2021/03/29 09:42:43;;;;;;;15.63;8.47;;;;;;;;;;4312820;33;20208;-67
2021/03/29 09:45:26;;;;;;;51.43;25.53;;;;;;;;;;4299658;33;20578;-72
2021/03/29 09:48:08;;;;;;;11.47;5.83;;;;;;;;;;4300846;33;20300;-74
2021/03/29 09:50:38;;;;;;;10.70;5.53;;;;;;;;;;4313153;33;20657;-71
2021/03/29 09:56:30;;;;;;;17.33;9.27;;;;;;;;;;4313421;33;20654;-64
2021/03/29 09:58:56;;;;;;;33.63;15.70;;;;;;;;;;4298279;33;20219;-65
2021/03/29 10:01:24;;;;;;;10.07;4.53;;;;;;;;;;4297223;33;20500;-67
2021/03/29 10:03:54;;;;;;;78.93;35.57;;;;;;;;;;4298330;33;20232;-64
2021/03/29 10:06:21;;;;;;;30.93;16.93;;;;;;;;;;4310503;33;20240;-66
2021/03/29 10:08:57;;;;;;;16.07;10.30;;;;;;;;;;4312331;33;20262;-67
2021/03/29 10:11:23;;;;;;;12.90;7.10;;;;;;;;;;4312401;33;20294;-70
2021/03/29 10:13:49;;;;;;;20.93;9.83;;;;;;;;;;4312354;33;20223;-69
2021/03/29 10:16:21;;;;;;;177.27;81.33;;;;;;;;;;4312627;33;20278;-71
2021/03/29 10:18:48;;;;;;;82.03;35.63;;;;;;;;;;4323518;33;20260;-69
2021/03/29 10:21:13;;;;;;;163.40;72.23;;;;;;;;;;4327001;33;20211;-69
2021/03/29 10:23:42;;;;;;;16.57;7.10;;;;;;;;;;4327104;33;20464;-68
2021/03/29 10:26:30;;;;;;;39.00;17.80;;;;;;;;;;4326771;33;20667;-65
2021/03/29 10:29:01;;;;;;;14.53;5.53;;;;;;;;;;4327008;33;20311;-67
2021/03/29 10:31:28;;;;;;;8.53;5.13;;;;;;;;;;4313790;33;20282;-67
2021/03/29 10:33:54;;;;;;;39.40;17.43;;;;;;;;;;4327220;33;20245;-66
2021/03/29 10:36:21;;;;;;;21.13;10.27;;;;;;;;;;4313850;33;20257;-66
2021/03/29 10:38:48;;;;;;;11.07;5.27;;;;;;;;;;4313716;33;20269;-67
2021/03/29 10:41:13;;;;;;;16.73;7.53;;;;;;;;;;4327414;33;20223;-66
2021/03/29 10:43:40;;;;;;;26.90;12.17;;;;;;;;;;4327046;33;20309;-66
2021/03/29 10:46:05;;;;;;;73.40;23.27;;;;;;;;;;4313639;33;20227;-66
2021/03/29 10:48:31;;;;;;;12.37;4.47;;;;;;;;;;4313995;33;20383;-66
2021/03/29 10:50:59;;;;;;;226.20;85.33;;;;;;;;;;4327840;33;20258;-66
2021/03/29 10:53:26;;;;;;;33.50;16.23;;;;;;;;;;4327732;33;20246;-66
2021/03/29 10:55:51;;;;;;;69.57;39.97;;;;;;;;;;4327257;33;20731;-65
2021/03/29 10:58:17;;;;;;;14.40;6.80;;;;;;;;;;4329109;33;20297;-66
2021/03/29 11:00:42;;;;;;;23.83;13.73;;;;;;;;;;4316680;33;20300;-67
2021/03/29 11:03:08;;;;;;;30.93;16.67;;;;;;;;;;4330125;33;20274;-68
2021/03/29 11:05:34;;;;;;;12.27;8.57;;;;;;;;;;4329990;33;20695;-67
2021/03/29 11:08:00;;;;;;;12.00;5.97;;;;;;;;;;4329796;33;20206;-64
2021/03/29 11:10:25;;;;;;;159.47;100.57;;;;;;;;;;4329958;33;20270;-66
2021/03/29 11:12:51;;;;;;;35.47;23.33;;;;;;;;;;4316558;33;20359;-66
2021/03/29 11:15:17;;;;;;;117.00;76.87;;;;;;;;;;4329992;33;20222;-66
2021/03/29 11:17:43;;;;;;;12.67;7.80;;;;;;;;;;4324585;33;20278;-65
2021/03/29 11:20:09;;;;;;;44.53;27.07;;;;;;;;;;4315127;33;20380;-66
2021/03/29 11:22:35;;;;;;;10.63;5.23;;;;;;;;;;4315052;33;20759;-64
2021/03/29 11:25:00;;;;;;;14.00;6.70;;;;;;;;;;4315300;33;20343;-66
2021/03/29 11:27:26;;;;;;;20.37;10.23;;;;;;;;;;4301865;33;20322;-66
2021/03/29 11:29:52;;;;;;;10.37;4.53;;;;;;;;;;4301916;33;20492;-66
2021/03/29 11:32:18;;;;;;;8.03;4.83;;;;;;;;;;4301585;33;20298;-63
2021/03/29 11:34:44;;;;;;;55.83;38.20;;;;;;;;;;4315079;33;20242;-65
2021/03/29 11:37:10;;;;;;;7.50;4.27;;;;;;;;;;4314918;33;20656;-68
2021/03/29 11:39:36;;;;;;;8.30;5.82;;;;;;;;;;4302153;33;20286;-69
2021/03/29 11:42:02;;;;;;;6.17;3.53;;;;;;;;;;4314701;33;20333;-67
2021/03/29 11:44:27;;;;;;;5.25;4.07;;;;;;;;;;4314963;33;20257;-64
2021/03/29 11:46:53;;;;;;;8.52;6.18;;;;;;;;;;4314737;33;20237;-65
2021/03/29 11:49:19;;;;;;;10.73;5.47;;;;;;;;;;4314635;33;20366;-64
2021/03/29 11:51:46;;;;;;;6.97;3.42;;;;;;;;;;4314650;33;20227;-65
2021/03/29 11:54:11;;;;;;;6.35;3.28;;;;;;;;;;4314903;33;20332;-66
2021/03/29 11:56:38;;;;;;;6.35;2.95;;;;;;;;;;4315158;33;20235;-66
2021/03/29 11:59:04;;;;;;;5.70;3.65;;;;;;;;;;4315772;33;20562;-66
2021/03/29 12:01:44;;;;;;;17.17;5.20;;;;;;;;;;4329100;33;20199;-65
2021/03/29 12:06:52;;;;;;;9.00;3.28;;;;;;;;;;4328908;33;20211;-65
2021/03/29 12:12:05;;;;;;;5.13;2.93;;;;;;;;;;4329014;33;20221;-66
2021/03/29 12:14:33;;;;;;;4.10;2.50;;;;;;;;;;4329266;33;20270;-66
2021/03/29 12:17:00;;;;;;;7.63;2.93;;;;;;;;;;4328421;33;20624;-65
2021/03/29 12:19:26;;;;;;;5.30;3.22;;;;;;;;;;4314160;33;20701;-65
2021/03/29 12:22:05;;;;;;;7.95;2.40;;;;;;;;;;4301114;33;20290;-65
2021/03/29 12:24:34;;;;;;;7.90;2.95;;;;;;;;;;4314591;33;20350;-65
2021/03/29 12:27:02;;;;;;;9.45;3.28;;;;;;;;;;4314061;33;20322;-66
2021/03/29 12:29:41;;;;;;;6.03;3.22;;;;;;;;;;4301254;33;20554;-64
2021/03/29 12:32:13;;;;;;;10.27;3.70;;;;;;;;;;4313839;33;20227;-65
2021/03/29 12:34:47;;;;;;;5.37;2.65;;;;;;;;;;4314257;33;20648;-64
2021/03/29 12:37:15;;;;;;;4.20;2.58;;;;;;;;;;4314358;33;20237;-65
2021/03/29 12:39:52;;;;;;;5.00;3.17;;;;;;;;;;4312768;33;20235;-65
2021/03/29 12:42:23;;;;;;;4.45;2.85;;;;;;;;;;4313773;33;20211;-66
2021/03/29 12:44:49;;;;;;;5.50;2.75;;;;;;;;;;4313759;33;20314;-64
2021/03/29 12:47:17;;;;;;;6.20;2.83;;;;;;;;;;4313700;33;20350;-65
2021/03/29 12:49:42;;;;;;;6.72;2.75;;;;;;;;;;4288543;33;20736;-64
2021/03/29 12:52:08;;;;;;;5.10;2.92;;;;;;;;;;4313651;33;20263;-64
2021/03/29 12:54:36;;;;;;;5.90;3.30;;;;;;;;;;4314088;33;20247;-64
2021/03/29 12:57:02;;;;;;;8.82;2.90;;;;;;;;;;4315883;33;20380;-65
2021/03/29 12:59:30;;;;;;;9.13;3.60;;;;;;;;;;4328856;33;20227;-64
2021/03/29 13:01:57;;;;;;;9.43;4.55;;;;;;;;;;4328671;33;20281;-64
2021/03/29 13:04:36;;;;;;;11.35;4.35;;;;;;;;;;4328502;33;20290;-63
2021/03/29 13:12:01;;;;;;;7.57;5.07;;;;;;;;;;4328270;33;20226;-65
2021/03/29 13:14:34;;;;;;;8.45;3.85;;;;;;;;;;4328759;33;20249;-64
2021/03/29 13:17:00;;;;;;;13.13;7.20;;;;;;;;;;4327665;33;20262;-65
2021/03/29 13:19:25;;;;;;;7.57;6.03;;;;;;;;;;4313958;33;20286;-55
2021/03/29 13:21:51;;;;;;;14.38;7.95;;;;;;;;;;4300612;33;20314;-55
2021/03/29 13:24:16;;;;;;;10.13;5.85;;;;;;;;;;4300649;33;20231;-55
2021/03/29 13:26:42;;;;;;;10.20;3.03;;;;;;;;;;4300397;33;20227;-55
2021/03/29 13:29:07;;;;;;;11.27;4.93;;;;;;;;;;4300522;33;20239;-55
2021/03/29 13:31:33;;;;;;;17.25;7.93;;;;;;;;;;4313819;33;20548;-56
2021/03/29 13:34:00;;;;;;;13.35;6.00;;;;;;;;;;4300115;33;20732;-55
2021/03/29 13:36:25;;;;;;;15.20;5.75;;;;;;;;;;4300378;33;20235;-55
2021/03/29 13:38:52;;;;;;;12.98;6.93;;;;;;;;;;4313622;33;20290;-54
2021/03/29 13:41:18;;;;;;;8.23;4.12;;;;;;;;;;4313379;33;20224;-54
2021/03/29 13:43:45;;;;;;;20.40;4.25;;;;;;;;;;4300322;33;20306;-56
2021/03/29 13:46:11;;;;;;;8.50;4.12;;;;;;;;;;4313555;33;20223;-54
2021/03/29 13:48:37;;;;;;;7.15;3.95;;;;;;;;;;4300214;33;20253;-55
2021/03/29 13:51:06;;;;;;;10.48;4.32;;;;;;;;;;4313656;33;20258;-55
2021/03/29 13:53:38;;;;;;;11.38;7.78;;;;;;;;;;4313460;33;20494;-55
2021/03/29 13:56:04;;;;;;;14.30;7.60;;;;;;;;;;4313334;33;20234;-55
2021/03/29 13:58:30;;;;;;;16.02;4.40;;;;;;;;;;4312408;33;20262;-55
2021/03/29 14:00:56;;;;;;;9.27;5.07;;;;;;;;;;4327846;33;20282;-56
2021/03/29 14:03:22;;;;;;;8.90;4.55;;;;;;;;;;4326898;33;20265;-55
2021/03/29 14:05:47;;;;;;;11.27;3.65;;;;;;;;;;4327707;33;20297;-55
2021/03/29 14:08:13;;;;;;;13.55;8.68;;;;;;;;;;4326523;33;20346;-55
2021/03/29 14:10:39;;;;;;;13.23;5.35;;;;;;;;;;4328055;33;20257;-56
2021/03/29 14:13:08;;;;;;;16.75;7.80;;;;;;;;;;4328071;33;20282;-57
2021/03/29 14:15:35;;;;;;;20.40;9.77;;;;;;;;;;4314602;33;20226;-56
2021/03/29 14:18:02;;;;;;;11.00;6.50;;;;;;;;;;4328207;33;20286;-58
2021/03/29 14:20:28;;;;;;;10.82;7.30;;;;;;;;;;4302385;33;20543;-55
2021/03/29 14:22:53;;;;;;;23.70;13.57;;;;;;;;;;4314484;33;20331;-56
2021/03/29 14:25:21;;;;;;;11.05;6.78;;;;;;;;;;4327844;33;20211;-56
2021/03/29 14:27:48;;;;;;;8.38;5.22;;;;;;;;;;4328169;33;20718;-56
2021/03/29 14:30:15;;;;;;;15.43;6.03;;;;;;;;;;4328444;33;20215;-56
2021/03/29 14:32:41;;;;;;;12.93;8.88;;;;;;;;;;4317516;33;20564;-56
2021/03/29 14:43:05;;;;;;;17.83;11.50;;;;;;;;;;4330594;33;20198;-57
2021/03/29 14:45:31;;;;;;;25.42;9.93;;;;;;;;;;4330646;33;20195;-55
2021/03/29 14:47:56;;;;;;;18.00;7.07;;;;;;;;;;4330552;33;20297;-57
2021/03/29 14:50:22;;;;;;;18.67;9.00;;;;;;;;;;4330624;33;20296;-55
2021/03/29 14:52:48;;;;;;;17.55;8.95;;;;;;;;;;4317186;33;20325;-56
2021/03/29 14:55:16;;;;;;;12.07;5.55;;;;;;;;;;4328554;33;20285;-55
2021/03/29 14:57:41;;;;;;;20.08;9.82;;;;;;;;;;4319783;33;20628;-55